createdAt,value
2023-01-10T05:02:54.890Z,3.53
2023-01-10T05:05:26.659Z,3.60
2023-01-10T05:07:58.353Z,3.30
2023-01-10T05:10:30.057Z,3.90
2023-01-10T05:13:01.746Z,4.00
2023-01-10T05:15:33.831Z,3.40
2023-01-10T05:18:06.942Z,4.33
2023-01-10T05:20:38.641Z,3.90
2023-01-10T05:23:10.315Z,4.00
2023-01-10T05:25:42.223Z,4.97
2023-01-10T05:28:13.947Z,4.30
2023-01-10T05:30:45.634Z,4.10
2023-01-10T05:33:18.640Z,3.67
2023-01-10T05:35:50.315Z,4.17
2023-01-10T05:38:22.000Z,3.73
2023-01-10T05:40:55.041Z,3.87
2023-01-10T05:43:26.718Z,3.27
2023-01-10T05:45:58.434Z,3.90
2023-01-10T05:48:31.449Z,3.50
2023-01-10T05:51:03.169Z,4.13
2023-01-10T05:53:34.842Z,3.50
2023-01-10T05:56:07.386Z,4.07
2023-01-10T05:58:39.032Z,3.67
2023-01-10T06:01:10.750Z,3.70
2023-01-10T06:03:43.810Z,3.33
2023-01-10T06:06:15.500Z,4.60
2023-01-10T06:08:47.187Z,3.77
2023-01-10T06:11:18.850Z,4.07
2023-01-10T06:13:50.500Z,4.60
2023-01-10T06:16:22.235Z,4.47
2023-01-10T06:18:55.266Z,4.10
2023-01-10T06:21:26.966Z,3.77
2023-01-10T06:23:58.604Z,3.60
2023-01-10T06:26:30.292Z,4.20
2023-01-10T06:29:01.992Z,4.60
2023-01-10T06:31:33.753Z,3.70
2023-01-10T06:34:06.915Z,4.67
2023-01-10T06:36:38.588Z,3.87
2023-01-10T06:39:10.452Z,3.70
2023-01-10T06:41:42.116Z,4.40
2023-01-10T06:44:13.785Z,4.43
2023-01-10T06:46:45.477Z,4.40
2023-01-10T06:49:18.491Z,4.83
2023-01-10T06:51:50.160Z,4.67
2023-01-10T06:54:21.820Z,4.53
2023-01-10T06:56:53.531Z,4.63
2023-01-10T06:59:25.204Z,3.70
2023-01-10T07:01:56.938Z,4.27
2023-01-10T07:04:30.028Z,3.87
2023-01-10T07:07:01.689Z,4.57
2023-01-10T07:09:33.369Z,5.13
2023-01-10T07:12:05.472Z,4.60
2023-01-10T07:14:37.197Z,4.50
2023-01-10T07:17:08.881Z,4.87
2023-01-10T07:19:41.943Z,4.27
2023-01-10T07:22:13.634Z,4.50
2023-01-10T07:24:45.334Z,4.37
2023-01-10T07:27:17.010Z,4.07
2023-01-10T07:29:49.098Z,4.27
2023-01-10T07:32:20.761Z,4.70
2023-01-10T07:34:53.870Z,5.17
2023-01-10T07:37:25.583Z,4.60
2023-01-10T07:39:57.609Z,4.57
2023-01-10T07:42:29.315Z,4.13
2023-01-10T07:45:01.003Z,4.30
2023-01-10T07:47:32.646Z,4.93
2023-01-10T07:50:06.949Z,3.80
2023-01-10T07:52:39.022Z,4.43
2023-01-10T07:55:10.716Z,5.33
2023-01-10T07:57:42.415Z,4.17
2023-01-10T08:00:17.302Z,5.20
2023-01-10T08:02:53.499Z,4.90
2023-01-10T08:05:26.634Z,5.10
2023-01-10T08:08:00.934Z,4.57
2023-01-10T08:10:33.218Z,4.43
2023-01-10T08:13:17.844Z,5.03
2023-01-10T08:15:51.012Z,4.93
2023-01-10T08:18:23.296Z,5.00
2023-01-10T08:20:56.659Z,4.90
2023-01-10T08:23:28.686Z,5.70
2023-01-10T08:26:00.757Z,4.40
2023-01-10T08:28:32.444Z,4.53
2023-01-10T08:31:07.525Z,4.90
2023-01-10T08:33:39.512Z,5.60
2023-01-10T08:36:19.255Z,7.70
2023-01-10T08:38:50.956Z,5.40
2023-01-10T08:41:22.714Z,6.33
2023-01-10T08:43:54.730Z,5.40
2023-01-10T08:46:26.488Z,5.23
2023-01-10T08:48:58.278Z,5.53
2023-01-10T08:51:31.303Z,6.33
2023-01-10T08:54:03.002Z,5.90
2023-01-10T08:56:34.763Z,7.87
2023-01-10T08:59:06.679Z,6.17
2023-01-10T09:01:38.602Z,6.40
2023-01-10T09:04:10.683Z,5.13
2023-01-10T09:06:43.781Z,5.10
2023-01-10T09:09:15.429Z,4.20
2023-01-10T09:11:47.476Z,4.60
2023-01-10T09:14:19.137Z,5.33
2023-01-10T09:16:50.825Z,5.63
2023-01-10T09:19:22.873Z,5.67
2023-01-10T09:21:55.888Z,4.90
2023-01-10T09:24:27.565Z,5.37
2023-01-10T09:26:59.245Z,5.03
2023-01-10T09:29:30.981Z,7.33
2023-01-10T09:32:02.816Z,6.10
2023-01-10T09:34:34.900Z,9.53
2023-01-10T09:37:08.289Z,4.97
2023-01-10T09:39:39.975Z,4.63
2023-01-10T09:42:19.433Z,7.30
2023-01-10T09:44:54.134Z,5.23
2023-01-10T09:47:29.908Z,5.50
2023-01-10T09:50:17.741Z,4.87
2023-01-10T09:52:52.172Z,5.47
2023-01-10T09:55:25.415Z,5.23
2023-01-10T09:57:58.270Z,4.40
2023-01-10T10:00:39.418Z,4.20
2023-01-10T10:03:19.511Z,4.83
2023-01-10T10:05:54.125Z,4.87
2023-01-10T10:08:29.069Z,4.93
2023-01-10T10:11:07.766Z,4.73
2023-01-10T10:13:44.706Z,5.13
2023-01-10T10:16:23.545Z,4.47
2023-01-10T10:18:59.560Z,5.13
2023-01-10T10:21:35.595Z,4.90
2023-01-10T10:24:33.737Z,4.87
2023-01-10T10:27:09.125Z,5.23
2023-01-10T10:29:54.560Z,5.53
2023-01-10T10:32:31.709Z,5.27
2023-01-10T10:35:04.206Z,4.63
2023-01-10T10:37:36.869Z,5.87
2023-01-10T10:40:16.528Z,5.57
2023-01-10T10:42:49.219Z,8.70
2023-01-10T10:45:25.281Z,6.23
2023-01-10T10:47:58.809Z,7.43
2023-01-10T10:50:32.243Z,4.73
2023-01-10T10:53:03.994Z,6.77
2023-01-10T10:55:37.174Z,5.10
2023-01-10T10:58:09.973Z,6.97
2023-01-10T11:00:41.754Z,6.03
2023-01-10T11:03:29.701Z,5.80
2023-01-10T11:06:01.371Z,4.53
2023-01-10T11:08:33.046Z,4.90
2023-01-10T11:11:10.074Z,5.00
2023-01-10T11:13:45.571Z,4.57
2023-01-10T11:16:24.783Z,4.17
2023-01-10T11:19:27.073Z,4.77
2023-01-10T11:21:59.839Z,3.80
2023-01-10T11:24:33.615Z,6.73
2023-01-10T11:27:15.496Z,4.50
2023-01-10T11:29:48.045Z,4.53
2023-01-10T11:32:20.478Z,5.17
2023-01-10T11:34:53.285Z,3.80
2023-01-10T11:37:26.454Z,3.83
2023-01-10T11:40:25.508Z,4.43
2023-01-10T11:42:59.515Z,3.53
2023-01-10T11:45:32.159Z,4.40
2023-01-10T11:48:08.351Z,3.63
2023-01-10T11:50:41.210Z,3.90
2023-01-10T11:53:31.089Z,4.07
2023-01-10T11:56:02.968Z,3.60
2023-01-10T11:58:35.957Z,3.67
2023-01-10T12:01:24.520Z,3.27
2023-01-10T12:03:56.204Z,3.13
2023-01-10T12:06:27.965Z,4.13
2023-01-10T12:08:59.602Z,4.70
2023-01-10T12:11:32.010Z,4.17
2023-01-10T12:14:18.166Z,3.87
2023-01-10T12:16:58.817Z,3.63
2023-01-10T12:19:30.495Z,4.00
2023-01-10T12:22:03.935Z,3.50
2023-01-10T12:24:36.145Z,4.30
2023-01-10T12:27:09.430Z,3.47
2023-01-10T12:29:43.998Z,3.73
2023-01-10T12:32:17.832Z,4.10
2023-01-10T12:34:52.958Z,3.70
2023-01-10T12:37:26.996Z,3.53
2023-01-10T12:40:00.730Z,4.03
2023-01-10T12:42:36.331Z,3.70
2023-01-10T12:45:12.056Z,3.77
2023-01-10T12:47:52.797Z,3.03
2023-01-10T12:50:26.384Z,3.70
2023-01-10T12:53:00.516Z,3.30
2023-01-10T12:55:35.110Z,3.00
2023-01-10T12:58:06.889Z,3.07
2023-01-10T13:00:48.135Z,3.50
2023-01-10T13:03:21.269Z,3.53
2023-01-10T13:05:52.992Z,4.20
2023-01-10T13:08:26.453Z,2.93
2023-01-10T13:10:58.396Z,3.03
2023-01-10T13:13:33.211Z,3.13
2023-01-10T13:16:22.538Z,3.17
2023-01-10T13:19:02.570Z,2.87
2023-01-10T13:21:34.354Z,3.40
2023-01-10T13:24:06.755Z,2.87
2023-01-10T13:26:46.645Z,3.20
2023-01-10T13:29:19.295Z,2.67
2023-01-10T13:31:52.332Z,3.73
2023-01-10T13:34:25.177Z,3.30
2023-01-10T13:36:57.436Z,2.90
2023-01-10T13:39:31.191Z,2.87
2023-01-10T13:42:23.345Z,2.53
2023-01-10T13:45:23.904Z,3.00
2023-01-10T13:48:24.197Z,3.57
2023-01-10T13:51:07.424Z,3.40
2023-01-10T13:53:57.548Z,3.77
2023-01-10T13:56:39.239Z,3.30
2023-01-10T13:59:12.532Z,2.90
2023-01-10T14:01:44.360Z,3.27
2023-01-10T14:04:20.944Z,3.10
2023-01-10T14:06:54.135Z,3.37
2023-01-10T14:09:35.301Z,3.00
2023-01-10T14:12:08.913Z,2.90
2023-01-10T14:14:40.647Z,3.73
2023-01-10T14:17:14.351Z,3.40
2023-01-10T14:19:48.431Z,3.60
2023-01-10T14:22:25.615Z,2.90
2023-01-10T14:24:57.472Z,3.63
2023-01-10T14:27:42.139Z,3.23
2023-01-10T14:30:18.230Z,3.23
2023-01-10T14:32:50.724Z,3.47
2023-01-10T14:35:24.752Z,3.30
2023-01-10T14:37:57.284Z,2.80
2023-01-10T14:40:33.705Z,3.40
2023-01-10T14:43:06.835Z,2.80
2023-01-10T14:45:39.798Z,2.97
2023-01-10T14:48:30.686Z,3.97
2023-01-10T14:51:24.775Z,3.20
2023-01-10T14:53:57.662Z,3.27
2023-01-10T14:56:30.171Z,2.80
2023-01-10T14:59:15.777Z,3.57
2023-01-10T15:01:48.021Z,3.17
2023-01-10T15:04:20.524Z,3.43
2023-01-10T15:06:54.920Z,3.17
2023-01-10T15:09:29.031Z,3.20
2023-01-10T15:12:02.054Z,2.90
2023-01-10T15:14:33.853Z,3.93
2023-01-10T15:17:05.503Z,3.07
2023-01-10T15:19:37.781Z,3.87
2023-01-10T15:22:26.160Z,4.33
2023-01-10T15:24:59.268Z,3.37
2023-01-10T15:27:30.920Z,4.00
2023-01-10T15:30:04.669Z,4.17
2023-01-10T15:32:37.237Z,3.97
2023-01-10T15:35:10.927Z,3.07
2023-01-10T15:37:48.306Z,3.50
2023-01-10T15:40:21.349Z,4.20
2023-01-10T15:42:58.133Z,3.63
2023-01-10T15:45:30.269Z,3.70
2023-01-10T15:48:01.894Z,3.10
2023-01-10T15:50:35.781Z,3.60
2023-01-10T15:53:09.851Z,4.70
2023-01-10T15:55:43.676Z,3.90
2023-01-10T15:58:17.994Z,4.13
2023-01-10T16:00:50.563Z,3.23
2023-01-10T16:03:24.544Z,3.77
2023-01-10T16:05:57.153Z,3.97
2023-01-10T16:08:31.476Z,4.00
2023-01-10T16:11:04.544Z,3.77
2023-01-10T16:13:36.205Z,4.90
2023-01-10T16:16:12.743Z,4.10
2023-01-10T16:18:44.434Z,3.87
2023-01-10T16:21:16.089Z,5.67
2023-01-10T16:23:49.109Z,4.63
2023-01-10T16:26:20.773Z,4.00
2023-01-10T16:28:52.448Z,3.93
2023-01-10T16:31:24.119Z,4.00
2023-01-10T16:33:55.801Z,3.50
2023-01-10T16:36:27.455Z,3.67
2023-01-10T16:39:01.434Z,3.93
2023-01-10T16:41:33.084Z,4.80
2023-01-10T16:44:04.846Z,4.00
2023-01-10T16:46:36.527Z,4.00
2023-01-10T16:49:08.216Z,16.83
2023-01-10T16:51:40.119Z,11.57
2023-01-10T16:54:16.697Z,8.30
2023-01-10T16:56:48.599Z,6.13
2023-01-10T16:59:20.287Z,7.63
2023-01-10T17:01:53.267Z,5.60
2023-01-10T17:04:25.598Z,8.63
2023-01-10T17:06:57.244Z,5.97
2023-01-10T17:09:30.729Z,5.33
2023-01-10T17:12:03.394Z,4.87
2023-01-10T17:14:35.761Z,4.67
2023-01-10T17:17:07.487Z,4.00
2023-01-10T17:19:39.158Z,5.03
2023-01-10T17:22:10.811Z,3.93
2023-01-10T17:24:43.831Z,4.70
2023-01-10T17:27:15.482Z,5.83
2023-01-10T17:29:47.519Z,4.33
2023-01-10T17:32:19.168Z,4.10
2023-01-10T17:34:50.811Z,3.53
2023-01-10T17:37:22.837Z,3.20
2023-01-10T17:39:55.872Z,4.40
2023-01-10T17:42:27.890Z,4.53
2023-01-10T17:44:59.561Z,4.60
2023-01-10T17:47:31.229Z,4.13
2023-01-10T17:50:03.153Z,4.03
2023-01-10T17:52:34.794Z,4.30
2023-01-10T17:55:08.577Z,4.17
2023-01-10T17:57:40.227Z,3.90
2023-01-10T18:00:12.878Z,3.73
2023-01-10T18:02:44.913Z,3.80
2023-01-10T18:05:16.747Z,3.37
2023-01-10T18:07:48.409Z,3.43
2023-01-10T18:10:21.440Z,3.60
2023-01-10T18:12:54.102Z,3.90
2023-01-10T18:15:26.430Z,5.63
2023-01-10T18:17:58.124Z,6.87
2023-01-10T18:20:29.775Z,5.13
2023-01-10T18:23:02.877Z,3.57
2023-01-10T18:25:37.727Z,3.80
2023-01-10T18:28:09.376Z,3.13
2023-01-10T18:30:41.118Z,2.90
2023-01-10T18:33:12.783Z,3.73
2023-01-10T18:35:47.226Z,2.70
2023-01-10T18:38:19.033Z,3.27
2023-01-10T18:40:52.043Z,3.10
2023-01-10T18:43:23.684Z,3.27
2023-01-10T18:45:59.260Z,3.20
2023-01-10T18:48:31.052Z,3.20
2023-01-10T18:51:02.969Z,3.60
2023-01-10T18:53:34.626Z,3.40
2023-01-10T18:56:08.090Z,3.27
2023-01-10T18:58:40.437Z,4.17
2023-01-10T19:01:13.017Z,3.20
2023-01-10T19:03:45.117Z,3.60
2023-01-10T19:06:17.853Z,2.80
2023-01-10T19:08:49.582Z,2.90
2023-01-10T19:11:22.601Z,2.87
2023-01-10T19:13:54.406Z,3.00
2023-01-10T19:16:27.003Z,2.63
2023-01-10T19:18:59.372Z,2.77
2023-01-10T19:21:31.839Z,2.53
2023-01-10T19:24:04.645Z,2.33
2023-01-10T19:26:37.679Z,2.90
2023-01-10T19:29:09.371Z,3.80
2023-01-10T19:31:41.089Z,4.83
2023-01-10T19:34:12.786Z,4.77
2023-01-10T19:36:44.448Z,2.90
2023-01-10T19:39:16.112Z,5.40
2023-01-10T19:41:49.106Z,3.37
2023-01-10T19:44:20.779Z,4.10
2023-01-10T19:46:52.406Z,3.40
2023-01-10T19:49:24.124Z,2.63
2023-01-10T19:51:55.796Z,3.10
2023-01-10T19:54:27.509Z,2.87
2023-01-10T19:57:00.510Z,4.50
2023-01-10T19:59:32.156Z,2.70
2023-01-10T20:02:03.829Z,3.30
2023-01-10T20:04:36.623Z,4.70
2023-01-10T20:07:08.881Z,3.30
2023-01-10T20:09:40.551Z,6.67
2023-01-10T20:12:13.533Z,2.90
2023-01-10T20:14:45.223Z,2.53
2023-01-10T20:17:16.929Z,2.00
2023-01-10T20:19:49.112Z,2.23
2023-01-10T20:22:20.809Z,1.93
2023-01-10T20:24:52.487Z,2.00
2023-01-10T20:27:25.474Z,1.90
2023-01-10T20:29:57.160Z,2.20
2023-01-10T20:32:28.810Z,1.90
2023-01-10T20:35:00.509Z,1.90
2023-01-10T20:37:32.188Z,1.83
2023-01-10T20:40:04.252Z,1.80
2023-01-10T20:42:39.020Z,1.70
2023-01-10T20:45:11.795Z,1.63
2023-01-10T20:47:43.436Z,1.70
2023-01-10T20:50:15.751Z,1.70
2023-01-10T20:52:47.390Z,1.70
2023-01-10T20:55:19.058Z,1.70
2023-01-10T20:57:52.058Z,1.80
2023-01-10T21:00:23.940Z,1.30
2023-01-10T21:02:55.660Z,1.73
2023-01-10T21:05:27.342Z,1.50
2023-01-10T21:07:59.000Z,1.40
2023-01-10T21:10:30.661Z,1.40
2023-01-10T21:13:03.650Z,1.40
2023-01-10T21:15:38.796Z,1.17
2023-01-10T21:18:10.651Z,1.67
2023-01-10T21:20:42.441Z,1.60
2023-01-10T21:23:14.198Z,1.30
2023-01-10T21:25:46.025Z,1.20
2023-01-10T21:28:19.334Z,1.60
2023-01-10T21:30:52.559Z,1.50
2023-01-10T21:33:24.234Z,1.23
2023-01-10T21:35:56.520Z,1.50
2023-01-10T21:38:28.269Z,1.50
2023-01-10T21:41:06.255Z,1.40
2023-01-10T21:43:39.230Z,1.50
2023-01-10T21:46:10.915Z,1.40
2023-01-10T21:48:42.585Z,1.30
2023-01-10T21:51:14.225Z,1.30
2023-01-10T21:53:45.898Z,1.33
2023-01-10T21:56:17.569Z,1.30
2023-01-10T21:58:50.579Z,1.10
2023-01-10T22:01:22.314Z,1.70
2023-01-10T22:03:54.071Z,1.30
2023-01-10T22:06:25.801Z,1.40
2023-01-10T22:08:57.465Z,1.27
2023-01-10T22:11:29.149Z,1.13
2023-01-10T22:14:02.162Z,1.00
2023-01-10T22:16:33.938Z,1.50
2023-01-10T22:19:05.694Z,1.37
2023-01-10T22:21:37.346Z,1.60
2023-01-10T22:24:09.202Z,1.43
2023-01-10T22:26:40.837Z,1.57
2023-01-10T22:29:13.826Z,1.00
2023-01-10T22:31:45.505Z,1.40
2023-01-10T22:34:17.523Z,1.30
2023-01-10T22:36:49.237Z,1.20
2023-01-10T22:39:20.927Z,1.33
2023-01-10T22:41:52.572Z,1.47
2023-01-10T22:44:26.089Z,1.30
2023-01-10T22:46:57.742Z,1.10
2023-01-10T22:49:29.451Z,1.30
2023-01-10T22:52:01.164Z,1.30
2023-01-10T22:54:32.999Z,1.10
2023-01-10T22:57:04.671Z,1.13
2023-01-10T22:59:37.719Z,1.27
